sensor_id;sensor_type;location;lat;lon;timestamp;temperature;humidity
66670;DHT22;53568;52.164;4.472;2023-02-03T00:00:27;10.56;78.87
66670;DHT22;53568;52.164;4.472;2023-02-03T00:02:56;10.46;79.07
66670;DHT22;53568;52.164;4.472;2023-02-03T00:05:22;10.44;79.32
66670;DHT22;53568;52.164;4.472;2023-02-03T00:07:48;10.44;79.28
66670;DHT22;53568;52.164;4.472;2023-02-03T00:10:15;10.38;79.55
66670;DHT22;53568;52.164;4.472;2023-02-03T00:12:49;10.35;79.57
66670;DHT22;53568;52.164;4.472;2023-02-03T00:15:15;10.38;79.62
66670;DHT22;53568;52.164;4.472;2023-02-03T00:17:41;10.39;79.40
66670;DHT22;53568;52.164;4.472;2023-02-03T00:20:07;10.36;79.30
66670;DHT22;53568;52.164;4.472;2023-02-03T00:22:33;10.42;79.34
66670;DHT22;53568;52.164;4.472;2023-02-03T00:24:58;10.45;79.36
66670;DHT22;53568;52.164;4.472;2023-02-03T00:27:25;10.42;79.29
66670;DHT22;53568;52.164;4.472;2023-02-03T00:29:50;10.36;79.39
66670;DHT22;53568;52.164;4.472;2023-02-03T00:32:16;10.41;79.42
66670;DHT22;53568;52.164;4.472;2023-02-03T00:34:41;10.34;79.51
66670;DHT22;53568;52.164;4.472;2023-02-03T00:37:07;10.35;79.72
66670;DHT22;53568;52.164;4.472;2023-02-03T00:39:35;10.31;79.82
66670;DHT22;53568;52.164;4.472;2023-02-03T00:42:02;10.25;79.95
66670;DHT22;53568;52.164;4.472;2023-02-03T00:44:28;10.32;79.83
66670;DHT22;53568;52.164;4.472;2023-02-03T00:46:54;10.39;79.64
66670;DHT22;53568;52.164;4.472;2023-02-03T00:49:19;10.45;79.49
66670;DHT22;53568;52.164;4.472;2023-02-03T00:51:45;10.42;79.49
66670;DHT22;53568;52.164;4.472;2023-02-03T00:54:10;10.38;79.54
66670;DHT22;53568;52.164;4.472;2023-02-03T00:56:36;10.38;79.69
66670;DHT22;53568;52.164;4.472;2023-02-03T00:59:01;10.32;79.65
66670;DHT22;53568;52.164;4.472;2023-02-03T01:01:27;10.31;79.85
66670;DHT22;53568;52.164;4.472;2023-02-03T01:03:55;10.35;79.73
66670;DHT22;53568;52.164;4.472;2023-02-03T01:06:22;10.38;79.44
66670;DHT22;53568;52.164;4.472;2023-02-03T01:08:48;10.41;79.25
66670;DHT22;53568;52.164;4.472;2023-02-03T01:11:20;10.44;79.03
66670;DHT22;53568;52.164;4.472;2023-02-03T01:13:46;10.38;78.95
66670;DHT22;53568;52.164;4.472;2023-02-03T01:16:16;10.32;78.79
66670;DHT22;53568;52.164;4.472;2023-02-03T01:18:42;10.35;78.57
66670;DHT22;53568;52.164;4.472;2023-02-03T01:21:12;10.26;78.46
66670;DHT22;53568;52.164;4.472;2023-02-03T01:23:38;10.32;78.35
66670;DHT22;53568;52.164;4.472;2023-02-03T01:26:06;10.36;78.07
66670;DHT22;53568;52.164;4.472;2023-02-03T01:28:33;10.36;77.92
66670;DHT22;53568;52.164;4.472;2023-02-03T01:31:18;10.39;77.53
66670;DHT22;53568;52.164;4.472;2023-02-03T01:33:45;10.42;77.18
66670;DHT22;53568;52.164;4.472;2023-02-03T01:36:14;10.50;76.81
66670;DHT22;53568;52.164;4.472;2023-02-03T01:38:40;10.48;76.87
66670;DHT22;53568;52.164;4.472;2023-02-03T01:41:10;10.59;76.61
66670;DHT22;53568;52.164;4.472;2023-02-03T01:43:41;10.58;76.51
66670;DHT22;53568;52.164;4.472;2023-02-03T01:46:35;10.59;76.55
66670;DHT22;53568;52.164;4.472;2023-02-03T01:49:21;10.68;76.24
66670;DHT22;53568;52.164;4.472;2023-02-03T01:51:50;10.72;76.21
66670;DHT22;53568;52.164;4.472;2023-02-03T01:54:29;10.60;76.24
66670;DHT22;53568;52.164;4.472;2023-02-03T01:57:02;10.69;76.08
66670;DHT22;53568;52.164;4.472;2023-02-03T01:59:30;10.68;76.01
66670;DHT22;53568;52.164;4.472;2023-02-03T02:01:58;10.73;76.04
66670;DHT22;53568;52.164;4.472;2023-02-03T02:04:33;10.72;76.01
66670;DHT22;53568;52.164;4.472;2023-02-03T02:07:01;10.75;76.02
66670;DHT22;53568;52.164;4.472;2023-02-03T02:09:28;10.75;75.94
66670;DHT22;53568;52.164;4.472;2023-02-03T02:11:53;10.83;75.82
66670;DHT22;53568;52.164;4.472;2023-02-03T02:14:19;10.77;75.93
66670;DHT22;53568;52.164;4.472;2023-02-03T02:22:29;10.75;76.50
66670;DHT22;53568;52.164;4.472;2023-02-03T02:25:35;10.69;77.01
66670;DHT22;53568;52.164;4.472;2023-02-03T02:28:36;10.75;77.00
66670;DHT22;53568;52.164;4.472;2023-02-03T02:34:31;10.52;77.98
66670;DHT22;53568;52.164;4.472;2023-02-03T02:37:08;10.59;77.80
66670;DHT22;53568;52.164;4.472;2023-02-03T02:39:44;10.72;77.58
66670;DHT22;53568;52.164;4.472;2023-02-03T02:42:39;10.66;77.63
66670;DHT22;53568;52.164;4.472;2023-02-03T02:45:20;10.66;77.48
66670;DHT22;53568;52.164;4.472;2023-02-03T02:47:48;10.60;77.36
66670;DHT22;53568;52.164;4.472;2023-02-03T02:50:28;10.59;77.26
66670;DHT22;53568;52.164;4.472;2023-02-03T02:52:56;10.59;77.52
66670;DHT22;53568;52.164;4.472;2023-02-03T02:55:26;10.60;77.51
66670;DHT22;53568;52.164;4.472;2023-02-03T02:57:56;10.66;77.39
66670;DHT22;53568;52.164;4.472;2023-02-03T03:00:23;10.75;77.26
66670;DHT22;53568;52.164;4.472;2023-02-03T03:02:49;10.73;77.06
66670;DHT22;53568;52.164;4.472;2023-02-03T03:05:16;10.63;77.17
66670;DHT22;53568;52.164;4.472;2023-02-03T03:08:03;10.62;77.28
66670;DHT22;53568;52.164;4.472;2023-02-03T03:10:31;10.65;77.17
66670;DHT22;53568;52.164;4.472;2023-02-03T03:13:06;10.59;77.20
66670;DHT22;53568;52.164;4.472;2023-02-03T03:15:34;10.59;77.03
66670;DHT22;53568;52.164;4.472;2023-02-03T03:20:54;10.53;77.07
66670;DHT22;53568;52.164;4.472;2023-02-03T03:23:37;10.55;77.12
66670;DHT22;53568;52.164;4.472;2023-02-03T03:26:29;10.52;76.99
66670;DHT22;53568;52.164;4.472;2023-02-03T03:29:18;10.58;76.96
66670;DHT22;53568;52.164;4.472;2023-02-03T03:31:45;10.60;76.98
66670;DHT22;53568;52.164;4.472;2023-02-03T03:34:13;10.53;77.13
66670;DHT22;53568;52.164;4.472;2023-02-03T03:39:26;10.63;77.33
66670;DHT22;53568;52.164;4.472;2023-02-03T03:42:09;10.59;77.49
66670;DHT22;53568;52.164;4.472;2023-02-03T03:44:59;10.56;77.54
66670;DHT22;53568;52.164;4.472;2023-02-03T03:47:37;10.56;77.36
66670;DHT22;53568;52.164;4.472;2023-02-03T03:50:09;10.60;77.52
66670;DHT22;53568;52.164;4.472;2023-02-03T03:52:37;10.59;77.72
66670;DHT22;53568;52.164;4.472;2023-02-03T03:55:08;10.59;77.59
66670;DHT22;53568;52.164;4.472;2023-02-03T03:57:59;10.58;77.65
66670;DHT22;53568;52.164;4.472;2023-02-03T04:00:29;10.50;77.84
66670;DHT22;53568;52.164;4.472;2023-02-03T04:03:04;10.53;77.81
66670;DHT22;53568;52.164;4.472;2023-02-03T04:05:31;10.48;77.85
66670;DHT22;53568;52.164;4.472;2023-02-03T04:07:58;10.46;77.97
66670;DHT22;53568;52.164;4.472;2023-02-03T04:10:36;10.52;77.81
66670;DHT22;53568;52.164;4.472;2023-02-03T04:13:03;10.46;78.00
66670;DHT22;53568;52.164;4.472;2023-02-03T04:15:30;10.44;78.19
66670;DHT22;53568;52.164;4.472;2023-02-03T04:17:56;10.49;78.01
66670;DHT22;53568;52.164;4.472;2023-02-03T04:20:23;10.46;78.03
66670;DHT22;53568;52.164;4.472;2023-02-03T04:22:49;10.42;78.01
66670;DHT22;53568;52.164;4.472;2023-02-03T04:25:14;10.44;78.15
66670;DHT22;53568;52.164;4.472;2023-02-03T04:27:40;10.42;77.94
66670;DHT22;53568;52.164;4.472;2023-02-03T04:30:06;10.44;77.81
66670;DHT22;53568;52.164;4.472;2023-02-03T04:32:32;10.49;77.71
66670;DHT22;53568;52.164;4.472;2023-02-03T04:35:00;10.46;77.80
66670;DHT22;53568;52.164;4.472;2023-02-03T04:37:26;10.49;77.82
66670;DHT22;53568;52.164;4.472;2023-02-03T04:39:55;10.45;77.85
66670;DHT22;53568;52.164;4.472;2023-02-03T04:42:21;10.44;78.09
66670;DHT22;53568;52.164;4.472;2023-02-03T04:44:48;10.49;77.92
66670;DHT22;53568;52.164;4.472;2023-02-03T04:47:14;10.50;77.84
66670;DHT22;53568;52.164;4.472;2023-02-03T04:49:39;10.46;77.96
66670;DHT22;53568;52.164;4.472;2023-02-03T04:52:05;10.48;77.96
66670;DHT22;53568;52.164;4.472;2023-02-03T04:54:31;10.41;78.22
66670;DHT22;53568;52.164;4.472;2023-02-03T04:56:57;10.39;78.24
66670;DHT22;53568;52.164;4.472;2023-02-03T04:59:22;10.39;78.31
66670;DHT22;53568;52.164;4.472;2023-02-03T05:01:48;10.42;78.13
66670;DHT22;53568;52.164;4.472;2023-02-03T05:04:13;10.41;78.12
66670;DHT22;53568;52.164;4.472;2023-02-03T05:06:39;10.38;78.13
66670;DHT22;53568;52.164;4.472;2023-02-03T05:09:04;10.41;78.00
66670;DHT22;53568;52.164;4.472;2023-02-03T05:11:30;10.39;78.00
66670;DHT22;53568;52.164;4.472;2023-02-03T05:13:55;10.36;77.84
66670;DHT22;53568;52.164;4.472;2023-02-03T05:16:22;10.42;77.99
66670;DHT22;53568;52.164;4.472;2023-02-03T05:18:47;10.35;78.27
66670;DHT22;53568;52.164;4.472;2023-02-03T05:21:13;10.39;78.16
66670;DHT22;53568;52.164;4.472;2023-02-03T05:23:39;10.31;78.29
66670;DHT22;53568;52.164;4.472;2023-02-03T05:26:04;10.34;78.34
66670;DHT22;53568;52.164;4.472;2023-02-03T05:28:30;10.36;78.31
66670;DHT22;53568;52.164;4.472;2023-02-03T05:31:00;10.34;78.27
66670;DHT22;53568;52.164;4.472;2023-02-03T05:33:26;10.38;78.19
66670;DHT22;53568;52.164;4.472;2023-02-03T05:35:52;10.34;78.46
66670;DHT22;53568;52.164;4.472;2023-02-03T05:38:17;10.28;78.66
66670;DHT22;53568;52.164;4.472;2023-02-03T05:40:43;10.32;78.66
66670;DHT22;53568;52.164;4.472;2023-02-03T05:43:27;10.31;78.64
66670;DHT22;53568;52.164;4.472;2023-02-03T05:45:53;10.32;78.69
66670;DHT22;53568;52.164;4.472;2023-02-03T05:48:18;10.31;78.68
66670;DHT22;53568;52.164;4.472;2023-02-03T05:50:44;10.34;78.63
66670;DHT22;53568;52.164;4.472;2023-02-03T05:53:10;10.34;78.67
66670;DHT22;53568;52.164;4.472;2023-02-03T05:55:36;10.32;78.66
66670;DHT22;53568;52.164;4.472;2023-02-03T05:58:03;10.32;78.69
66670;DHT22;53568;52.164;4.472;2023-02-03T06:00:29;10.35;78.59
66670;DHT22;53568;52.164;4.472;2023-02-03T06:02:59;10.29;78.77
66670;DHT22;53568;52.164;4.472;2023-02-03T06:05:27;10.32;78.81
66670;DHT22;53568;52.164;4.472;2023-02-03T06:07:53;10.26;79.00
66670;DHT22;53568;52.164;4.472;2023-02-03T06:10:19;10.24;79.10
66670;DHT22;53568;52.164;4.472;2023-02-03T06:12:45;10.24;79.17
66670;DHT22;53568;52.164;4.472;2023-02-03T06:15:11;10.28;79.08
66670;DHT22;53568;52.164;4.472;2023-02-03T06:17:36;10.19;79.09
66670;DHT22;53568;52.164;4.472;2023-02-03T06:20:06;10.18;79.37
66670;DHT22;53568;52.164;4.472;2023-02-03T06:22:33;10.12;79.63
66670;DHT22;53568;52.164;4.472;2023-02-03T06:24:59;10.21;79.45
66670;DHT22;53568;52.164;4.472;2023-02-03T06:27:24;10.21;79.42
66670;DHT22;53568;52.164;4.472;2023-02-03T06:29:50;10.16;79.61
66670;DHT22;53568;52.164;4.472;2023-02-03T06:32:16;10.09;79.81
66670;DHT22;53568;52.164;4.472;2023-02-03T06:34:41;10.18;79.72
66670;DHT22;53568;52.164;4.472;2023-02-03T06:37:07;10.16;79.79
66670;DHT22;53568;52.164;4.472;2023-02-03T06:39:32;10.14;80.00
66670;DHT22;53568;52.164;4.472;2023-02-03T06:41:58;10.12;79.98
66670;DHT22;53568;52.164;4.472;2023-02-03T06:44:24;10.14;80.02
66670;DHT22;53568;52.164;4.472;2023-02-03T06:46:50;10.11;80.26
66670;DHT22;53568;52.164;4.472;2023-02-03T06:49:16;10.21;79.97
66670;DHT22;53568;52.164;4.472;2023-02-03T06:51:42;10.24;79.86
66670;DHT22;53568;52.164;4.472;2023-02-03T06:54:10;10.26;79.82
66670;DHT22;53568;52.164;4.472;2023-02-03T06:56:35;10.26;79.81
66670;DHT22;53568;52.164;4.472;2023-02-03T06:59:01;10.24;79.88
66670;DHT22;53568;52.164;4.472;2023-02-03T07:01:26;10.25;79.76
66670;DHT22;53568;52.164;4.472;2023-02-03T07:03:54;10.28;79.86
66670;DHT22;53568;52.164;4.472;2023-02-03T07:06:22;10.24;79.99
66670;DHT22;53568;52.164;4.472;2023-02-03T07:08:48;10.25;79.90
66670;DHT22;53568;52.164;4.472;2023-02-03T07:11:13;10.21;80.18
66670;DHT22;53568;52.164;4.472;2023-02-03T07:13:39;10.24;80.17
66670;DHT22;53568;52.164;4.472;2023-02-03T07:16:05;10.28;80.05
66670;DHT22;53568;52.164;4.472;2023-02-03T07:18:31;10.22;80.15
66670;DHT22;53568;52.164;4.472;2023-02-03T07:20:56;10.29;80.00
66670;DHT22;53568;52.164;4.472;2023-02-03T07:23:22;10.26;79.89
66670;DHT22;53568;52.164;4.472;2023-02-03T07:25:47;10.31;80.01
66670;DHT22;53568;52.164;4.472;2023-02-03T07:28:13;10.31;80.03
66670;DHT22;53568;52.164;4.472;2023-02-03T07:30:38;10.24;79.97
66670;DHT22;53568;52.164;4.472;2023-02-03T07:33:04;10.25;80.18
66670;DHT22;53568;52.164;4.472;2023-02-03T07:35:29;10.21;80.24
66670;DHT22;53568;52.164;4.472;2023-02-03T07:37:55;10.26;80.17
66670;DHT22;53568;52.164;4.472;2023-02-03T07:40:20;10.25;80.15
66670;DHT22;53568;52.164;4.472;2023-02-03T07:42:48;10.24;80.17
66670;DHT22;53568;52.164;4.472;2023-02-03T07:45:16;10.24;80.20
66670;DHT22;53568;52.164;4.472;2023-02-03T07:47:42;10.22;80.28
66670;DHT22;53568;52.164;4.472;2023-02-03T07:50:10;10.28;80.24
66670;DHT22;53568;52.164;4.472;2023-02-03T07:52:37;10.28;80.21
66670;DHT22;53568;52.164;4.472;2023-02-03T07:55:03;10.31;80.13
66670;DHT22;53568;52.164;4.472;2023-02-03T07:57:29;10.25;80.17
66670;DHT22;53568;52.164;4.472;2023-02-03T07:59:54;10.31;80.09
66670;DHT22;53568;52.164;4.472;2023-02-03T08:02:20;10.32;79.97
66670;DHT22;53568;52.164;4.472;2023-02-03T08:04:46;10.38;79.98
66670;DHT22;53568;52.164;4.472;2023-02-03T08:07:11;10.31;80.11
66670;DHT22;53568;52.164;4.472;2023-02-03T08:09:37;10.22;80.40
66670;DHT22;53568;52.164;4.472;2023-02-03T08:12:02;10.28;80.23
66670;DHT22;53568;52.164;4.472;2023-02-03T08:14:28;10.29;80.18
66670;DHT22;53568;52.164;4.472;2023-02-03T08:16:55;10.29;80.39
66670;DHT22;53568;52.164;4.472;2023-02-03T08:19:21;10.35;80.19
66670;DHT22;53568;52.164;4.472;2023-02-03T08:21:46;10.32;80.03
66670;DHT22;53568;52.164;4.472;2023-02-03T08:24:12;10.31;80.09
66670;DHT22;53568;52.164;4.472;2023-02-03T08:26:38;10.32;80.01
66670;DHT22;53568;52.164;4.472;2023-02-03T08:29:04;10.28;80.00
66670;DHT22;53568;52.164;4.472;2023-02-03T08:31:30;10.32;80.00
66670;DHT22;53568;52.164;4.472;2023-02-03T08:33:55;10.35;79.98
66670;DHT22;53568;52.164;4.472;2023-02-03T08:36:21;10.39;79.75
66670;DHT22;53568;52.164;4.472;2023-02-03T08:38:46;10.44;79.76
66670;DHT22;53568;52.164;4.472;2023-02-03T08:41:15;10.44;79.69
66670;DHT22;53568;52.164;4.472;2023-02-03T08:43:43;10.39;79.67
66670;DHT22;53568;52.164;4.472;2023-02-03T08:46:11;10.46;79.67
66670;DHT22;53568;52.164;4.472;2023-02-03T08:48:37;10.45;79.63
66670;DHT22;53568;52.164;4.472;2023-02-03T08:51:14;10.46;79.78
66670;DHT22;53568;52.164;4.472;2023-02-03T08:53:40;10.39;79.89
66670;DHT22;53568;52.164;4.472;2023-02-03T08:56:08;10.42;80.12
66670;DHT22;53568;52.164;4.472;2023-02-03T08:58:34;10.42;80.02
66670;DHT22;53568;52.164;4.472;2023-02-03T09:01:10;10.46;79.88
66670;DHT22;53568;52.164;4.472;2023-02-03T09:03:37;10.46;79.96
66670;DHT22;53568;52.164;4.472;2023-02-03T09:06:04;10.48;79.89
66670;DHT22;53568;52.164;4.472;2023-02-03T09:08:29;10.58;79.60
66670;DHT22;53568;52.164;4.472;2023-02-03T09:10:55;10.52;79.66
66670;DHT22;53568;52.164;4.472;2023-02-03T09:13:22;10.52;79.84
66670;DHT22;53568;52.164;4.472;2023-02-03T09:15:47;10.48;79.84
66670;DHT22;53568;52.164;4.472;2023-02-03T09:18:13;10.53;79.73
66670;DHT22;53568;52.164;4.472;2023-02-03T09:20:38;10.55;79.70
66670;DHT22;53568;52.164;4.472;2023-02-03T09:23:04;10.53;79.71
66670;DHT22;53568;52.164;4.472;2023-02-03T09:25:30;10.45;79.94
66670;DHT22;53568;52.164;4.472;2023-02-03T09:27:55;10.44;80.10
66670;DHT22;53568;52.164;4.472;2023-02-03T09:30:21;10.52;79.66
66670;DHT22;53568;52.164;4.472;2023-02-03T09:32:46;10.53;79.73
66670;DHT22;53568;52.164;4.472;2023-02-03T09:35:21;10.55;79.49
66670;DHT22;53568;52.164;4.472;2023-02-03T09:37:46;10.58;79.49
66670;DHT22;53568;52.164;4.472;2023-02-03T09:40:26;10.59;79.26
66670;DHT22;53568;52.164;4.472;2023-02-03T09:43:01;10.68;79.07
66670;DHT22;53568;52.164;4.472;2023-02-03T09:45:29;10.56;79.19
66670;DHT22;53568;52.164;4.472;2023-02-03T09:48:03;10.56;79.37
66670;DHT22;53568;52.164;4.472;2023-02-03T09:50:34;10.73;78.76
66670;DHT22;53568;52.164;4.472;2023-02-03T09:53:09;10.76;78.61
66670;DHT22;53568;52.164;4.472;2023-02-03T09:55:42;10.69;78.82
66670;DHT22;53568;52.164;4.472;2023-02-03T09:58:12;10.73;78.66
66670;DHT22;53568;52.164;4.472;2023-02-03T10:01:05;10.75;78.41
66670;DHT22;53568;52.164;4.472;2023-02-03T10:03:42;10.66;78.63
66670;DHT22;53568;52.164;4.472;2023-02-03T10:09:41;10.68;78.62
66670;DHT22;53568;52.164;4.472;2023-02-03T10:12:16;10.72;78.65
66670;DHT22;53568;52.164;4.472;2023-02-03T10:17:32;10.65;79.03
66670;DHT22;53568;52.164;4.472;2023-02-03T10:20:25;10.69;78.79
66670;DHT22;53568;52.164;4.472;2023-02-03T10:23:00;10.72;78.78
66670;DHT22;53568;52.164;4.472;2023-02-03T10:25:43;10.76;78.58
66670;DHT22;53568;52.164;4.472;2023-02-03T10:28:17;10.68;78.92
66670;DHT22;53568;52.164;4.472;2023-02-03T10:30:50;10.83;78.46
66670;DHT22;53568;52.164;4.472;2023-02-03T10:33:18;10.80;78.33
66670;DHT22;53568;52.164;4.472;2023-02-03T10:35:49;10.90;78.12
66670;DHT22;53568;52.164;4.472;2023-02-03T10:41:02;10.88;78.17
66670;DHT22;53568;52.164;4.472;2023-02-03T10:43:30;10.83;78.38
66670;DHT22;53568;52.164;4.472;2023-02-03T10:46:13;10.83;78.26
66670;DHT22;53568;52.164;4.472;2023-02-03T10:48:39;10.86;78.25
66670;DHT22;53568;52.164;4.472;2023-02-03T10:51:22;10.88;78.23
66670;DHT22;53568;52.164;4.472;2023-02-03T10:53:49;10.82;78.38
66670;DHT22;53568;52.164;4.472;2023-02-03T10:56:31;10.80;78.57
66670;DHT22;53568;52.164;4.472;2023-02-03T10:59:01;10.86;78.45
66670;DHT22;53568;52.164;4.472;2023-02-03T11:01:43;10.83;78.41
66670;DHT22;53568;52.164;4.472;2023-02-03T11:04:27;10.88;78.35
66670;DHT22;53568;52.164;4.472;2023-02-03T11:06:58;10.80;78.75
66670;DHT22;53568;52.164;4.472;2023-02-03T11:12:21;10.88;78.47
66670;DHT22;53568;52.164;4.472;2023-02-03T11:14:49;10.92;78.31
66670;DHT22;53568;52.164;4.472;2023-02-03T11:17:19;10.84;78.61
66670;DHT22;53568;52.164;4.472;2023-02-03T11:19:49;10.90;78.46
66670;DHT22;53568;52.164;4.472;2023-02-03T11:22:39;10.96;78.19
66670;DHT22;53568;52.164;4.472;2023-02-03T11:25:26;10.82;78.47
66670;DHT22;53568;52.164;4.472;2023-02-03T11:27:55;10.92;78.35
66670;DHT22;53568;52.164;4.472;2023-02-03T11:30:27;10.89;78.31
66670;DHT22;53568;52.164;4.472;2023-02-03T11:33:00;10.89;78.59
66670;DHT22;53568;52.164;4.472;2023-02-03T11:35:28;10.93;78.52
66670;DHT22;53568;52.164;4.472;2023-02-03T11:38:00;10.97;78.32
66670;DHT22;53568;52.164;4.472;2023-02-03T11:40:31;10.92;78.64
66670;DHT22;53568;52.164;4.472;2023-02-03T11:43:04;10.99;78.33
66670;DHT22;53568;52.164;4.472;2023-02-03T11:45:37;10.92;78.49
66670;DHT22;53568;52.164;4.472;2023-02-03T11:51:26;10.96;78.44
66670;DHT22;53568;52.164;4.472;2023-02-03T12:00:15;10.97;78.41
66670;DHT22;53568;52.164;4.472;2023-02-03T12:06:12;10.93;78.40
66670;DHT22;53568;52.164;4.472;2023-02-03T12:09:02;11.02;78.23
66670;DHT22;53568;52.164;4.472;2023-02-03T12:14:46;11.06;78.18
66670;DHT22;53568;52.164;4.472;2023-02-03T12:31:10;11.14;78.05
66670;DHT22;53568;52.164;4.472;2023-02-03T12:33:49;11.09;78.21
66670;DHT22;53568;52.164;4.472;2023-02-03T12:36:23;11.14;78.26
66670;DHT22;53568;52.164;4.472;2023-02-03T12:39:08;10.99;78.89
66670;DHT22;53568;52.164;4.472;2023-02-03T12:41:41;11.03;78.66
66670;DHT22;53568;52.164;4.472;2023-02-03T12:44:20;11.02;78.35
66670;DHT22;53568;52.164;4.472;2023-02-03T12:47:01;10.96;78.76
66670;DHT22;53568;52.164;4.472;2023-02-03T12:49:54;10.95;78.88
66670;DHT22;53568;52.164;4.472;2023-02-03T12:52:36;10.97;78.90
66670;DHT22;53568;52.164;4.472;2023-02-03T12:58:25;10.93;79.16
66670;DHT22;53568;52.164;4.472;2023-02-03T13:01:05;10.97;79.01
66670;DHT22;53568;52.164;4.472;2023-02-03T13:09:26;10.77;79.88
66670;DHT22;53568;52.164;4.472;2023-02-03T13:17:47;10.56;81.28
66670;DHT22;53568;52.164;4.472;2023-02-03T13:20:23;10.41;81.73
66670;DHT22;53568;52.164;4.472;2023-02-03T13:22:49;10.45;81.87
66670;DHT22;53568;52.164;4.472;2023-02-03T13:31:23;10.35;82.70
66670;DHT22;53568;52.164;4.472;2023-02-03T13:39:49;10.49;82.33
66670;DHT22;53568;52.164;4.472;2023-02-03T13:42:33;10.41;82.38
66670;DHT22;53568;52.164;4.472;2023-02-03T13:47:52;10.48;82.31
66670;DHT22;53568;52.164;4.472;2023-02-03T13:50:26;10.53;82.27
66670;DHT22;53568;52.164;4.472;2023-02-03T13:52:56;10.52;82.44
66670;DHT22;53568;52.164;4.472;2023-02-03T13:55:37;10.50;82.39
66670;DHT22;53568;52.164;4.472;2023-02-03T13:58:13;10.44;82.46
66670;DHT22;53568;52.164;4.472;2023-02-03T14:05:51;10.52;82.32
66670;DHT22;53568;52.164;4.472;2023-02-03T14:16:45;10.56;81.88
66670;DHT22;53568;52.164;4.472;2023-02-03T14:22:04;10.56;81.58
66670;DHT22;53568;52.164;4.472;2023-02-03T14:24:37;10.55;81.92
66670;DHT22;53568;52.164;4.472;2023-02-03T14:27:24;10.65;81.59
66670;DHT22;53568;52.164;4.472;2023-02-03T14:30:11;10.66;81.44
66670;DHT22;53568;52.164;4.472;2023-02-03T14:38:08;10.68;81.43
66670;DHT22;53568;52.164;4.472;2023-02-03T14:40:54;10.69;81.34
66670;DHT22;53568;52.164;4.472;2023-02-03T14:46:20;10.70;81.14
66670;DHT22;53568;52.164;4.472;2023-02-03T14:57:48;10.72;81.14
66670;DHT22;53568;52.164;4.472;2023-02-03T15:05:43;10.65;81.55
66670;DHT22;53568;52.164;4.472;2023-02-03T15:13:44;10.50;82.12
66670;DHT22;53568;52.164;4.472;2023-02-03T15:16:18;10.55;82.13
66670;DHT22;53568;52.164;4.472;2023-02-03T15:18:44;10.52;82.27
66670;DHT22;53568;52.164;4.472;2023-02-03T15:21:18;10.48;82.23
66670;DHT22;53568;52.164;4.472;2023-02-03T15:23:46;10.44;82.51
66670;DHT22;53568;52.164;4.472;2023-02-03T15:26:20;10.49;82.36
66670;DHT22;53568;52.164;4.472;2023-02-03T15:31:28;10.60;82.06
66670;DHT22;53568;52.164;4.472;2023-02-03T15:34:43;10.58;81.94
66670;DHT22;53568;52.164;4.472;2023-02-03T15:36:54;10.63;82.05
66670;DHT22;53568;52.164;4.472;2023-02-03T15:39:41;10.63;81.71
66670;DHT22;53568;52.164;4.472;2023-02-03T15:42:18;10.60;82.00
66670;DHT22;53568;52.164;4.472;2023-02-03T15:44:55;10.65;81.95
66670;DHT22;53568;52.164;4.472;2023-02-03T15:47:34;10.68;82.02
66670;DHT22;53568;52.164;4.472;2023-02-03T15:50:28;10.72;81.73
66670;DHT22;53568;52.164;4.472;2023-02-03T15:52:58;10.68;81.60
66670;DHT22;53568;52.164;4.472;2023-02-03T15:55:32;10.55;81.81
66670;DHT22;53568;52.164;4.472;2023-02-03T15:57:59;10.63;81.73
66670;DHT22;53568;52.164;4.472;2023-02-03T16:00:36;10.56;81.78
66670;DHT22;53568;52.164;4.472;2023-02-03T16:03:13;10.34;82.63
66670;DHT22;53568;52.164;4.472;2023-02-03T16:05:40;10.45;82.34
66670;DHT22;53568;52.164;4.472;2023-02-03T16:08:33;10.44;82.28
66670;DHT22;53568;52.164;4.472;2023-02-03T16:11:00;10.38;82.42
66670;DHT22;53568;52.164;4.472;2023-02-03T16:13:27;10.36;82.51
66670;DHT22;53568;52.164;4.472;2023-02-03T16:16:06;10.35;82.56
66670;DHT22;53568;52.164;4.472;2023-02-03T16:18:39;10.41;82.37
66670;DHT22;53568;52.164;4.472;2023-02-03T16:21:05;10.36;82.31
66670;DHT22;53568;52.164;4.472;2023-02-03T16:23:31;10.29;82.32
66670;DHT22;53568;52.164;4.472;2023-02-03T16:26:21;10.28;82.59
66670;DHT22;53568;52.164;4.472;2023-02-03T16:31:48;10.24;82.29
66670;DHT22;53568;52.164;4.472;2023-02-03T16:34:33;10.09;82.27
66670;DHT22;53568;52.164;4.472;2023-02-03T16:40:09;10.08;82.31
66670;DHT22;53568;52.164;4.472;2023-02-03T16:42:53;10.11;82.15
66670;DHT22;53568;52.164;4.472;2023-02-03T16:45:37;10.14;81.94
66670;DHT22;53568;52.164;4.472;2023-02-03T16:48:22;10.11;81.51
66670;DHT22;53568;52.164;4.472;2023-02-03T16:51:15;10.12;81.58
66670;DHT22;53568;52.164;4.472;2023-02-03T16:53:43;10.02;82.24
66670;DHT22;53568;52.164;4.472;2023-02-03T16:56:11;10.25;81.93
66670;DHT22;53568;52.164;4.472;2023-02-03T16:58:36;10.32;81.71
66670;DHT22;53568;52.164;4.472;2023-02-03T17:01:04;10.35;81.71
66670;DHT22;53568;52.164;4.472;2023-02-03T17:03:33;10.36;81.78
66670;DHT22;53568;52.164;4.472;2023-02-03T17:06:05;10.34;81.62
66670;DHT22;53568;52.164;4.472;2023-02-03T17:08:32;10.29;82.01
66670;DHT22;53568;52.164;4.472;2023-02-03T17:11:18;10.24;82.07
66670;DHT22;53568;52.164;4.472;2023-02-03T17:13:45;10.11;82.78
66670;DHT22;53568;52.164;4.472;2023-02-03T17:16:14;10.15;82.91
66670;DHT22;53568;52.164;4.472;2023-02-03T17:18:41;10.16;82.79
66670;DHT22;53568;52.164;4.472;2023-02-03T17:21:10;10.11;83.21
66670;DHT22;53568;52.164;4.472;2023-02-03T17:23:37;10.15;82.90
66670;DHT22;53568;52.164;4.472;2023-02-03T17:26:03;10.24;82.77
66670;DHT22;53568;52.164;4.472;2023-02-03T17:28:29;10.21;82.73
66670;DHT22;53568;52.164;4.472;2023-02-03T17:30:57;10.26;82.46
66670;DHT22;53568;52.164;4.472;2023-02-03T17:33:23;10.16;82.90
66670;DHT22;53568;52.164;4.472;2023-02-03T17:38:31;10.21;82.71
66670;DHT22;53568;52.164;4.472;2023-02-03T17:40:57;10.19;82.56
66670;DHT22;53568;52.164;4.472;2023-02-03T17:43:22;10.24;82.60
66670;DHT22;53568;52.164;4.472;2023-02-03T17:45:48;10.31;82.36
66670;DHT22;53568;52.164;4.472;2023-02-03T17:48:13;10.25;82.20
66670;DHT22;53568;52.164;4.472;2023-02-03T17:50:39;10.28;82.46
66670;DHT22;53568;52.164;4.472;2023-02-03T17:53:04;10.25;82.30
66670;DHT22;53568;52.164;4.472;2023-02-03T17:55:31;10.28;82.27
66670;DHT22;53568;52.164;4.472;2023-02-03T17:57:57;10.34;82.23
66670;DHT22;53568;52.164;4.472;2023-02-03T18:00:22;10.26;82.29
66670;DHT22;53568;52.164;4.472;2023-02-03T18:02:49;10.34;82.25
66670;DHT22;53568;52.164;4.472;2023-02-03T18:05:15;10.34;81.95
66670;DHT22;53568;52.164;4.472;2023-02-03T18:07:40;10.34;81.85
66670;DHT22;53568;52.164;4.472;2023-02-03T18:10:06;10.34;82.00
66670;DHT22;53568;52.164;4.472;2023-02-03T18:12:33;10.28;82.10